Search for airport 
image banner adimage banner adimage banner ad
image banner ad

4C8 - Albia Muni

Located in Albia, United States

ICAO - 4C8, IATA -

Data provided by Airmate  

General information

Coordinates: N40°59'47" W92°45'56"
Elevation is 964 feet MSL.
Magnetic variation is 02° East
View others Airports in Iowa

Operational data

Special qualification required
Current time UTC:
Current local time:
Weather at : KOTM - Ottumwa Rgnl ( 29 km )
METAR: KOTM 181753Z AUTO 19003KT 10SM CLR 29/22 A2984 RMK AO2 RAB1658E08 SLP096 P0000 60000 T02890222 10294 20244 53008
TAF: KOTM 181724Z 1818/1918 VRB06KT P6SM VCSH SCT120 BKN200 FM182100 12005KT P6SM BKN200 FM190200 10004KT P6SM VCTS SCT070CB BKN100 TEMPO 1903/1907 VRB15G30KT 3SM TSRA BR BKN050CB FM191000 30005KT P6SM SCT250
View NOTAMs / SUP AIP / TFR affecting this airport [VIEW]
Communications frequencies: [VIEW]

Runways:

RWY identifierQFULength (ft)Width (ft)SurfaceLDA (ft)
13129°339860ASPH
31309°339860ASPH

Airport contact information

Address: Albia United States

Satellite view of 4C8